Time;durP1;ratioP1;P1;durP2;ratioP2;P2;SDS_P1;SDS_P2;PMS_P1;PMS_P2;Temp;Humidity;BMP_temperature;BMP_pressure;BME280_temperature;BME280_humidity;BME280_pressure;Samples;Min_cycle;Max_cycle;Signal;HPM_P1;HPM_P2
2023/07/05 07:01:22;;;;;;;0.73;0.73;;;15.30;99.90;18.00;100514.00;;;;6195079;22;1376397;-64
2023/07/05 07:03:51;;;;;;;3.90;1.57;;;15.70;99.90;17.10;100511.00;;;;6247744;22;20206;-65
2023/07/05 07:06:22;;;;;;;1.20;1.10;;;15.70;99.90;17.20;100512.00;;;;6248372;22;20135;-65
2023/07/05 07:08:51;;;;;;;4.37;1.63;;;15.70;99.90;17.80;100500.00;;;;6247906;22;20147;-64
2023/07/05 07:11:22;;;;;;;6.33;1.50;;;15.80;99.90;16.80;100522.00;;;;6247864;22;20134;-64
2023/07/05 07:13:53;;;;;;;1.63;1.20;;;15.60;99.90;17.60;100541.00;;;;6246547;23;20142;-64
2023/07/05 07:16:25;;;;;;;0.97;0.97;;;15.70;99.90;17.40;100540.00;;;;6247883;22;20143;-64
2023/07/05 07:18:56;;;;;;;4.87;1.60;;;15.70;99.90;17.20;100529.00;;;;6247619;22;20143;-64
2023/07/05 07:21:25;;;;;;;4.90;1.17;;;15.80;99.90;18.30;100561.00;;;;6247745;22;20172;-65
2023/07/05 07:24:01;;;;;;;0.97;0.97;;;16.10;99.90;17.60;100537.00;;;;6247680;22;20180;-65
2023/07/05 07:26:30;;;;;;;0.90;0.90;;;16.10;99.90;18.30;100532.00;;;;6247637;23;20153;-65
2023/07/05 07:28:59;;;;;;;4.07;2.30;;;16.40;99.90;18.60;100553.00;;;;6247899;22;20148;-64
2023/07/05 07:31:36;;;;;;;1.70;0.90;;;16.90;99.90;18.40;100557.00;;;;6247549;22;20153;-65
2023/07/05 07:34:13;;;;;;;1.10;0.83;;;16.80;99.90;19.50;100575.00;;;;6246578;23;20138;-65
2023/07/05 07:36:42;;;;;;;5.90;3.53;;;17.30;99.90;19.60;100591.00;;;;6245882;23;20149;-64
2023/07/05 07:39:14;;;;;;;0.97;0.90;;;17.70;99.90;19.20;100594.00;;;;6247790;23;20575;-65
2023/07/05 07:41:49;;;;;;;1.73;1.60;;;17.80;99.90;18.80;100577.00;;;;6245691;23;20160;-65
2023/07/05 07:44:20;;;;;;;1.03;0.97;;;17.60;99.90;18.90;100596.00;;;;6246185;23;20166;-65
2023/07/05 07:46:49;;;;;;;2.83;1.20;;;17.70;99.90;19.20;100569.00;;;;6246203;23;20519;-65
2023/07/05 07:49:20;;;;;;;5.53;2.13;;;17.50;99.90;18.80;100590.00;;;;6246395;23;20147;-65
2023/07/05 07:51:48;;;;;;;3.97;1.83;;;17.50;99.90;19.60;100616.00;;;;6247370;22;20145;-65
2023/07/05 07:54:26;;;;;;;2.77;1.53;;;17.80;99.90;19.00;100623.00;;;;6247939;22;20178;-65
2023/07/05 07:56:57;;;;;;;3.53;1.53;;;17.70;99.90;19.90;100630.00;;;;6247289;22;20703;-65
2023/07/05 07:59:24;;;;;;;1.67;1.05;;;18.10;99.90;20.40;100617.00;;;;6247420;22;20165;-65
2023/07/05 08:01:50;;;;;;;8.00;1.10;;;18.50;99.90;20.00;100624.00;;;;6245959;23;20176;-65
2023/07/05 08:04:19;;;;;;;2.20;1.60;;;18.40;99.90;20.80;100655.00;;;;6247216;22;20149;-65
2023/07/05 08:06:49;;;;;;;1.42;1.20;;;18.60;99.90;19.20;100630.00;;;;6247019;22;20147;-65
2023/07/05 08:09:27;;;;;;;1.43;0.87;;;18.10;99.90;20.30;100659.00;;;;6246153;23;20143;-65
2023/07/05 08:12:02;;;;;;;1.70;1.52;;;18.40;99.90;19.90;100663.00;;;;6246970;22;20196;-65
2023/07/05 08:14:28;;;;;;;4.35;1.90;;;18.40;99.90;20.40;100671.00;;;;6246051;23;20200;-65
2023/07/05 08:16:57;;;;;;;2.65;1.35;;;18.60;99.90;20.20;100692.00;;;;6245844;23;20150;-65
2023/07/05 08:19:33;;;;;;;1.75;1.17;;;18.50;99.90;21.30;100696.00;;;;6247621;22;20211;-65
2023/07/05 08:22:06;;;;;;;0.77;0.50;;;19.00;99.90;21.00;100714.00;;;;6246752;22;20161;-65
2023/07/05 08:24:36;;;;;;;5.05;2.25;;;18.90;99.90;19.90;100700.00;;;;6246141;22;20434;-65
2023/07/05 08:27:05;;;;;;;6.18;1.88;;;18.40;99.90;20.40;100704.00;;;;6247059;22;20138;-65
2023/07/05 08:29:57;;;;;;;1.23;0.70;;;18.60;99.90;19.70;100701.00;;;;6247479;22;20155;-65
2023/07/05 08:32:33;;;;;;;1.85;1.67;;;18.30;99.90;20.70;100697.00;;;;6246885;22;20199;-65
2023/07/05 08:35:07;;;;;;;2.42;1.20;;;18.70;99.90;20.20;100692.00;;;;6246760;22;20250;-65
2023/07/05 08:37:35;;;;;;;1.38;1.15;;;18.70;99.90;20.70;100705.00;;;;6247098;22;20191;-65
2023/07/05 08:40:07;;;;;;;0.82;0.82;;;18.80;99.90;21.00;100735.00;;;;6247301;22;20224;-65
2023/07/05 08:43:26;;;;;;;2.15;1.35;;;19.00;99.90;20.00;100730.00;;;;6245434;23;20178;-64
2023/07/05 08:46:10;;;;;;;2.42;1.20;;;18.60;99.90;20.90;100756.00;;;;6246938;22;20203;-64
2023/07/05 08:48:42;;;;;;;0.70;0.70;;;19.10;99.90;20.70;100784.00;;;;6245263;23;20156;-65
2023/07/05 08:51:14;;;;;;;4.13;0.98;;;19.10;99.90;22.10;100774.00;;;;6246546;22;20145;-65
2023/07/05 08:54:02;;;;;;;0.77;0.77;;;19.60;99.90;21.90;100796.00;;;;6245660;23;20229;-65
2023/07/05 08:56:44;;;;;;;3.22;1.10;;;19.40;99.90;21.70;100802.00;;;;6246734;22;20577;-65
2023/07/05 08:59:27;;;;;;;7.25;1.40;;;19.50;99.90;21.50;100814.00;;;;6220195;23;20554;-65
2023/07/05 09:02:02;;;;;;;0.40;0.40;;;19.30;99.90;22.90;100810.00;;;;6244990;23;20188;-65
2023/07/05 09:04:33;;;;;;;1.70;1.20;;;19.80;99.90;21.20;100853.00;;;;6245139;23;20161;-65
2023/07/05 09:07:08;;;;;;;3.35;1.10;;;19.60;99.90;21.40;100836.00;;;;6246761;22;20507;-65
2023/07/05 09:10:12;;;;;;;2.28;1.23;;;19.20;99.90;21.40;100851.00;;;;6247125;22;20145;-65
2023/07/05 09:13:01;;;;;;;1.02;0.52;;;19.80;99.90;21.30;100864.00;;;;6245076;23;20155;-65
2023/07/05 09:16:00;;;;;;;1.05;1.00;;;19.40;99.90;21.80;100830.00;;;;6245060;23;20142;-65
2023/07/05 09:19:06;;;;;;;2.47;1.00;;;19.50;99.90;22.20;100866.00;;;;6199778;23;20166;-65
2023/07/05 09:21:46;;;;;;;0.98;0.90;;;20.20;99.90;21.50;100900.00;;;;6203564;23;20593;-64
2023/07/05 09:24:25;;;;;;;1.23;0.85;;;19.70;99.90;21.10;100891.00;;;;6245384;23;20224;-65
2023/07/05 09:27:01;;;;;;;2.63;1.17;;;19.30;99.90;22.20;100890.00;;;;6219846;23;20518;-65
2023/07/05 09:29:58;;;;;;;0.45;0.45;;;20.10;99.90;22.60;100897.00;;;;6220026;23;20613;-65
2023/07/05 09:32:36;;;;;;;1.73;0.80;;;20.00;99.90;21.40;100905.00;;;;6246391;22;20142;-65
2023/07/05 09:35:23;;;;;;;1.35;0.75;;;19.90;99.90;23.10;100895.00;;;;6245241;23;20596;-65
2023/07/05 09:38:01;;;;;;;1.98;0.98;;;20.30;99.90;22.00;100918.00;;;;6244797;23;20484;-65
2023/07/05 09:40:39;;;;;;;5.65;0.93;;;20.20;99.90;23.10;100905.00;;;;6220004;23;20493;-65
2023/07/05 09:43:33;;;;;;;2.33;0.93;;;20.50;99.90;21.40;100932.00;;;;6244948;23;20166;-65
2023/07/05 09:46:28;;;;;;;1.40;0.93;;;19.70;99.90;22.20;100919.00;;;;6234736;22;20161;-65
2023/07/05 09:48:59;;;;;;;0.80;0.77;;;19.60;99.90;23.30;100920.00;;;;6246387;22;20161;-65
2023/07/05 09:51:36;;;;;;;4.93;1.75;;;20.40;99.90;21.90;100937.00;;;;6244862;23;20443;-65
2023/07/05 09:54:09;;;;;;;1.25;1.00;;;20.20;99.90;23.50;100925.00;;;;6244875;23;20141;-65
2023/07/05 09:57:06;;;;;;;0.47;0.47;;;20.90;99.90;23.20;100907.00;;;;6245163;23;20150;-64
2023/07/05 09:59:37;;;;;;;0.68;0.68;;;20.90;99.90;24.00;100909.00;;;;6246718;22;20216;-64
2023/07/05 10:02:14;;;;;;;2.53;0.77;;;21.30;99.90;22.90;100927.00;;;;6244634;23;20200;-64
2023/07/05 10:04:58;;;;;;;0.32;0.32;;;20.60;99.90;23.40;100902.00;;;;6245964;23;20149;-64
2023/07/05 10:07:32;;;;;;;1.55;1.38;;;20.90;99.90;22.70;100936.00;;;;6244941;23;20148;-64
2023/07/05 10:10:11;;;;;;;0.88;0.88;;;20.60;99.90;23.10;100896.00;;;;6244670;23;20211;-65
2023/07/05 10:12:47;;;;;;;2.25;0.47;;;20.70;99.90;24.70;100891.00;;;;6246377;22;20152;-65
2023/07/05 10:15:26;;;;;;;0.82;0.82;;;21.20;99.90;26.10;100864.00;;;;6244882;23;20220;-65
2023/07/05 10:18:36;;;;;;;0.47;0.45;;;23.10;99.90;25.50;100883.00;;;;6245803;22;20144;-65
2023/07/05 10:33:40;;;;;;;3.50;0.77;;;21.90;99.90;23.80;100952.00;;;;5070428;28;21085;-66
2023/07/05 10:36:55;;;;;;;0.70;0.65;;;21.90;99.90;25.40;100905.00;;;;5050648;28;20228;-66
2023/07/05 10:39:42;;;;;;;2.65;0.82;;;21.90;99.90;26.10;100921.00;;;;5028133;28;20199;-66
2023/07/05 10:42:39;;;;;;;0.32;0.32;;;22.90;99.90;24.00;100927.00;;;;5028332;28;20233;-66
2023/07/05 10:45:17;;;;;;;0.50;0.50;;;22.10;99.90;24.80;100936.00;;;;5019085;28;20195;-66
2023/07/05 10:48:09;;;;;;;1.48;0.88;;;22.00;99.90;24.20;100944.00;;;;5012181;28;20190;-66
2023/07/05 10:51:05;;;;;;;0.30;0.30;;;21.70;99.90;23.90;100945.00;;;;5012503;28;20641;-66
2023/07/05 10:53:57;;;;;;;0.50;0.50;;;21.60;99.90;23.40;100959.00;;;;5011509;28;20198;-66
2023/07/05 10:56:52;;;;;;;0.68;0.45;;;21.40;99.90;25.60;100951.00;;;;4995906;28;20195;-66
2023/07/05 11:00:07;;;;;;;1.50;0.93;;;22.10;99.90;25.10;100943.00;;;;5004522;28;20199;-66
2023/07/05 11:03:21;;;;;;;0.32;0.32;;;22.50;99.90;25.20;100950.00;;;;5027893;28;20230;-66
2023/07/05 11:06:27;;;;;;;0.50;0.50;;;23.00;99.90;25.70;100947.00;;;;4995175;28;20194;-66
2023/07/05 11:09:25;;;;;;;3.88;0.50;;;22.40;99.90;25.00;100949.00;;;;5024406;28;20202;-66
2023/07/05 11:12:28;;;;;;;1.40;1.05;;;22.80;99.90;24.50;100940.00;;;;5013311;28;20660;-66
2023/07/05 11:15:14;;;;;;;2.15;1.00;;;21.80;99.90;26.20;100940.00;;;;4995746;28;20629;-66
2023/07/05 11:17:49;;;;;;;4.13;1.25;;;22.80;99.90;26.40;100910.00;;;;5048760;28;20182;-66
2023/07/05 11:23:48;;;;;;;0.60;0.60;;;22.60;99.90;24.30;100984.00;;;;5048336;28;20194;-66
2023/07/05 11:26:37;;;;;;;1.02;0.80;;;22.00;99.90;25.70;100946.00;;;;5038403;28;20277;-66
2023/07/05 11:29:32;;;;;;;0.65;0.30;;;22.90;99.90;24.40;100982.00;;;;5048202;28;20535;-66
2023/07/05 11:32:01;;;;;;;0.52;0.52;;;22.60;99.90;25.70;100961.00;;;;5026772;28;20242;-66
2023/07/05 11:34:41;;;;;;;0.80;0.50;;;23.10;99.90;26.10;100953.00;;;;5046872;28;20198;-66
2023/07/05 11:37:11;;;;;;;0.20;0.20;;;23.10;99.90;24.70;100995.00;;;;5048288;28;20182;-66
2023/07/05 11:39:50;;;;;;;0.50;0.50;;;22.50;99.90;24.80;100991.00;;;;5049201;28;20178;-66
2023/07/05 11:42:22;;;;;;;0.43;0.30;;;22.30;99.90;25.90;100983.00;;;;5049250;28;20451;-66
2023/07/05 11:45:19;;;;;;;0.10;0.10;;;22.70;99.90;28.90;100947.00;;;;5034450;28;20236;-65
2023/07/05 11:47:51;;;;;;;0.47;0.47;;;24.40;99.90;27.30;100986.00;;;;5031513;28;20695;-66
2023/07/05 11:50:31;;;;;;;0.75;0.52;;;24.40;99.90;24.20;101028.00;;;;5018271;28;20187;-65
2023/07/05 11:53:13;;;;;;;0.10;0.10;;;23.00;99.90;26.70;100989.00;;;;5035662;28;20622;-65
2023/07/05 11:55:40;;;;;;;0.10;0.10;;;22.80;99.90;26.70;101011.00;;;;5034662;28;20551;-65
2023/07/05 11:58:26;;;;;;;3.50;0.82;;;23.10;99.90;25.60;101020.00;;;;5034443;28;20183;-65
2023/07/05 12:00:58;;;;;;;1.02;0.80;;;23.00;99.90;25.20;101022.00;;;;5034651;28;20212;-65
2023/07/05 12:03:53;;;;;;;4.85;0.43;;;22.50;99.90;25.00;101058.00;;;;5034856;28;20186;-65
2023/07/05 12:06:40;;;;;;;0.10;0.10;;;22.10;99.90;27.30;101005.00;;;;5029356;28;20218;-65
2023/07/05 12:09:19;;;;;;;0.73;0.57;;;22.90;99.90;24.50;101071.00;;;;5048994;28;20182;-64
2023/07/05 12:11:58;;;;;;;0.38;0.38;;;22.50;99.90;27.10;101042.00;;;;5035694;28;20199;-64
2023/07/05 12:14:27;;;;;;;0.20;0.20;;;23.00;99.90;25.40;101046.00;;;;5028937;28;20433;-64
2023/07/05 12:16:56;;;;;;;0.98;0.88;;;22.70;99.90;25.30;101077.00;;;;5035414;28;20235;-64
2023/07/05 12:19:33;;;;;;;0.60;0.60;;;22.70;99.90;24.90;101076.00;;;;5034209;28;20183;-64
2023/07/05 12:22:18;;;;;;;1.83;0.98;;;22.50;99.90;24.30;101084.00;;;;5034176;28;20187;-64
2023/07/05 12:24:57;;;;;;;1.15;1.02;;;21.90;99.90;24.50;101089.00;;;;5034148;28;20182;-64
2023/07/05 12:27:29;;;;;;;0.65;0.65;;;22.30;99.90;24.60;101074.00;;;;5033646;28;20186;-64
2023/07/05 12:29:59;;;;;;;0.80;0.80;;;22.20;99.90;26.30;101069.00;;;;5034495;28;20202;-64
2023/07/05 12:32:31;;;;;;;0.52;0.40;;;22.90;99.90;26.10;101071.00;;;;5035100;28;20305;-64
2023/07/05 12:35:12;;;;;;;0.75;0.75;;;23.20;99.90;25.00;101067.00;;;;5035273;28;20659;-64
2023/07/05 12:37:47;;;;;;;0.30;0.30;;;23.00;99.90;26.10;101078.00;;;;5021039;28;20182;-64
2023/07/05 12:40:40;;;;;;;0.38;0.38;;;22.70;99.90;26.70;101067.00;;;;5033772;28;20197;-64
2023/07/05 12:43:08;;;;;;;1.05;0.95;;;23.40;99.90;25.20;101102.00;;;;5022802;28;20649;-64
2023/07/05 12:45:39;;;;;;;1.55;1.45;;;22.60;99.90;25.50;101084.00;;;;5033790;28;20579;-64
2023/07/05 12:48:37;;;;;;;0.10;0.10;;;22.50;99.90;26.90;101069.00;;;;5035239;28;20236;-63
2023/07/05 12:51:24;;;;;;;0.10;0.10;;;23.10;99.90;26.40;101079.00;;;;5019953;28;20277;-64
2023/07/05 12:54:02;;;;;;;0.17;0.17;;;23.10;99.90;26.70;101081.00;;;;5034628;28;20274;-64
2023/07/05 12:56:45;;;;;;;1.15;0.98;;;22.90;99.90;24.10;101109.00;;;;5040532;28;20193;-64
2023/07/05 12:59:37;;;;;;;0.80;0.80;;;21.90;99.90;25.50;101100.00;;;;5023153;28;20187;-64
2023/07/05 13:02:15;;;;;;;0.22;0.22;;;22.20;99.90;25.80;101093.00;;;;5028330;28;20558;-64
2023/07/05 13:04:49;;;;;;;1.75;0.90;;;22.30;99.90;25.40;101110.00;;;;5033228;28;20185;-64
2023/07/05 13:07:26;;;;;;;0.32;0.32;;;22.50;99.90;26.10;101099.00;;;;5017211;28;20198;-64
2023/07/05 13:09:59;;;;;;;0.75;0.45;;;22.70;99.90;23.10;101131.00;;;;5034470;28;20244;-64
2023/07/05 13:12:55;;;;;;;1.02;0.47;;;21.50;99.90;23.70;101138.00;;;;5032802;28;20218;-64
2023/07/05 13:15:38;;;;;;;0.60;0.52;;;21.30;99.90;25.00;101130.00;;;;5026639;28;20222;-64
2023/07/05 13:18:30;;;;;;;2.72;1.35;;;21.60;99.90;24.80;101128.00;;;;5033827;28;20575;-64
2023/07/05 13:21:11;;;;;;;1.30;1.23;;;22.00;99.90;24.80;101128.00;;;;5032819;28;20179;-64
2023/07/05 13:23:49;;;;;;;1.13;0.90;;;21.80;99.90;24.90;101131.00;;;;5033126;28;20187;-64
2023/07/05 13:26:41;;;;;;;0.50;0.45;;;22.00;99.90;25.60;101128.00;;;;5020939;28;20206;-64
2023/07/05 13:29:30;;;;;;;0.17;0.17;;;22.10;99.90;26.40;101113.00;;;;5024002;28;20650;-64
2023/07/05 13:32:01;;;;;;;0.20;0.20;;;22.40;99.90;27.40;101086.00;;;;5032562;28;20218;-64
2023/07/05 13:34:32;;;;;;;0.98;0.77;;;22.90;99.90;26.50;101108.00;;;;5017504;28;20665;-64
2023/07/05 13:37:10;;;;;;;0.20;0.20;;;23.10;99.90;26.00;101096.00;;;;5033527;28;20211;-64
2023/07/05 13:39:45;;;;;;;1.05;0.68;;;22.70;99.90;24.50;101118.00;;;;5032551;28;20642;-64
2023/07/05 13:42:14;;;;;;;0.30;0.30;;;22.40;99.90;26.00;101113.00;;;;5033532;28;20649;-64
2023/07/05 13:44:46;;;;;;;0.20;0.20;;;22.10;99.90;26.90;101107.00;;;;5033920;28;20183;-64
2023/07/05 13:47:16;;;;;;;1.30;0.47;;;22.70;99.90;25.90;101120.00;;;;5035111;28;20179;-64
2023/07/05 13:50:21;;;;;;;0.52;0.30;;;22.60;99.90;24.70;101136.00;;;;5032521;28;20183;-64
2023/07/05 13:53:27;;;;;;;0.65;0.65;;;22.30;99.90;24.50;101149.00;;;;5033775;28;20293;-64
2023/07/05 13:55:52;;;;;;;2.25;1.15;;;21.90;99.90;24.80;101145.00;;;;5031948;28;21478;-64
2023/07/05 13:58:37;;;;;;;;;;;;;;;;;;;;;
2023/07/05 14:01:16;;;;;;;0.30;0.30;;;22.20;99.90;26.80;101123.00;;;;5033226;28;20544;-64
2023/07/05 14:03:51;;;;;;;0.30;0.30;;;22.70;99.90;26.50;101112.00;;;;5032121;28;20193;-65
2023/07/05 14:06:30;;;;;;;0.10;0.10;;;23.00;99.90;27.20;101113.00;;;;5033412;28;20281;-64
2023/07/05 14:08:59;;;;;;;1.33;0.90;;;23.20;99.90;26.20;101125.00;;;;5015648;28;20182;-64
2023/07/05 14:11:35;;;;;;;5.68;1.05;;;23.00;99.90;26.50;101118.00;;;;5031907;28;20682;-64
2023/07/05 14:14:08;;;;;;;0.77;0.77;;;23.10;99.90;24.70;101150.00;;;;5033048;28;20178;-64
2023/07/05 14:16:37;;;;;;;0.40;0.20;;;22.40;99.90;26.10;101138.00;;;;5033171;28;20226;-64
2023/07/05 14:19:10;;;;;;;0.30;0.30;;;22.40;99.90;25.30;101132.00;;;;5033046;28;20187;-64
2023/07/05 14:21:45;;;;;;;0.55;0.55;;;22.20;99.90;25.50;101154.00;;;;5033315;28;20183;-64
2023/07/05 14:24:17;;;;;;;0.35;0.30;;;22.30;99.90;25.70;101149.00;;;;5033010;28;20188;-64
2023/07/05 14:26:45;;;;;;;1.20;0.90;;;22.40;99.90;26.10;101151.00;;;;5032858;28;20191;-64
2023/07/05 14:29:16;;;;;;;0.20;0.20;;;22.70;99.90;26.60;101147.00;;;;5032964;28;20205;-64
2023/07/05 14:31:48;;;;;;;1.00;0.90;;;22.60;99.90;25.50;101149.00;;;;5033020;28;20355;-64
2023/07/05 14:34:19;;;;;;;0.10;0.10;;;22.50;99.90;27.00;101127.00;;;;5022820;28;20184;-64
2023/07/05 14:36:47;;;;;;;1.67;0.30;;;22.90;99.90;25.70;101157.00;;;;5031950;28;20266;-64
2023/07/05 14:39:16;;;;;;;1.65;1.65;;;22.60;99.90;24.10;101185.00;;;;5032762;28;20569;-64
2023/07/05 14:41:48;;;;;;;0.25;0.25;;;21.60;99.90;24.40;101182.00;;;;5032798;28;20691;-64
2023/07/05 14:44:21;;;;;;;0.55;0.55;;;21.50;99.90;24.60;101187.00;;;;5032808;28;20183;-64
2023/07/05 14:47:00;;;;;;;0.80;0.55;;;21.50;99.90;24.90;101183.00;;;;5033129;28;20198;-64
2023/07/05 14:49:31;;;;;;;0.10;0.10;;;21.60;99.90;25.40;101173.00;;;;5032823;28;20637;-64
2023/07/05 14:51:59;;;;;;;0.80;0.80;;;21.80;99.90;26.20;101152.00;;;;5024523;28;20445;-64
2023/07/05 14:54:28;;;;;;;0.10;0.10;;;22.20;99.90;26.90;101175.00;;;;5026120;28;20190;-64
2023/07/05 14:56:59;;;;;;;0.20;0.20;;;22.60;99.90;24.80;101203.00;;;;5032740;28;20178;-64
2023/07/05 14:59:28;;;;;;;0.10;0.10;;;22.40;99.90;25.50;101179.00;;;;5031807;28;20269;-64
2023/07/05 15:01:59;;;;;;;0.20;0.20;;;21.80;99.90;25.40;101190.00;;;;5015296;28;20182;-64
2023/07/05 15:04:32;;;;;;;0.73;0.73;;;21.70;99.90;25.30;101192.00;;;;5031386;28;20630;-64
2023/07/05 15:07:03;;;;;;;2.17;0.52;;;21.80;99.90;24.90;101201.00;;;;5032449;28;20190;-64
2023/07/05 15:09:31;;;;;;;0.10;0.10;;;21.80;99.90;26.60;101181.00;;;;5032511;28;20186;-64
2023/07/05 15:12:06;;;;;;;0.10;0.10;;;22.40;99.90;26.30;101186.00;;;;5031420;28;20206;-64
2023/07/05 15:14:34;;;;;;;0.10;0.10;;;22.60;99.90;26.90;101181.00;;;;5032611;28;20281;-64
2023/07/05 15:17:03;;;;;;;0.50;0.50;;;23.00;99.90;27.60;101177.00;;;;5032927;28;20262;-64
2023/07/05 15:19:31;;;;;;;0.30;0.30;;;23.30;99.90;27.40;101162.00;;;;5035207;28;20629;-64
2023/07/05 15:22:02;;;;;;;1.15;1.00;;;23.40;99.90;25.70;101206.00;;;;5036068;28;20604;-64
2023/07/05 15:24:32;;;;;;;0.43;0.40;;;22.70;99.90;26.80;101200.00;;;;5036496;28;20191;-64
2023/07/05 15:27:04;;;;;;;3.30;1.30;;;22.80;99.90;26.10;101210.00;;;;5036316;28;20198;-64
2023/07/05 15:29:32;;;;;;;2.22;1.13;;;22.60;99.90;24.40;101239.00;;;;5036443;28;20244;-64
2023/07/05 15:32:07;;;;;;;2.60;0.80;;;21.80;99.90;23.50;101247.00;;;;5036063;28;20210;-64
2023/07/05 15:34:41;;;;;;;1.27;0.50;;;21.10;99.90;24.60;101236.00;;;;5032616;28;20651;-64
2023/07/05 15:37:09;;;;;;;0.65;0.65;;;21.30;99.90;23.90;101242.00;;;;5035039;28;20228;-64
2023/07/05 15:39:39;;;;;;;0.68;0.68;;;21.00;99.90;24.10;101257.00;;;;5035869;28;20182;-64
2023/07/05 15:42:13;;;;;;;0.75;0.75;;;21.00;99.90;22.60;101284.00;;;;5035844;28;20560;-64
2023/07/05 15:44:39;;;;;;;1.38;1.33;;;20.50;99.90;22.10;101250.00;;;;5035755;28;20190;-64
2023/07/05 15:47:11;;;;;;;0.85;0.75;;;19.90;99.90;22.80;101209.00;;;;5036223;28;20186;-64
2023/07/05 15:49:39;;;;;;;1.25;1.17;;;19.90;99.90;22.50;101183.00;;;;5035422;28;20226;-64
2023/07/05 15:52:26;;;;;;;1.27;0.73;;;19.70;99.90;24.10;101208.00;;;;5029740;28;20198;-64
2023/07/05 15:54:52;;;;;;;0.20;0.20;;;20.20;99.90;22.70;101193.00;;;;5035520;28;20191;-64
2023/07/05 15:57:20;;;;;;;1.55;1.10;;;20.00;99.90;23.70;101195.00;;;;5036323;28;20214;-64
2023/07/05 15:59:57;;;;;;;0.90;0.90;;;20.20;99.90;23.20;101211.00;;;;5034471;28;20311;-64
2023/07/05 16:02:40;;;;;;;1.00;0.93;;;20.40;99.90;22.50;101199.00;;;;5028237;28;20190;-64
2023/07/05 16:05:14;;;;;;;0.98;0.57;;;20.00;99.90;22.20;101178.00;;;;5023973;28;20206;-64
2023/07/05 16:07:43;;;;;;;0.77;0.77;;;19.80;99.90;22.60;101162.00;;;;5034650;28;20190;-65
2023/07/05 16:10:13;;;;;;;0.10;0.10;;;19.70;99.90;24.20;101208.00;;;;5035520;28;20186;-65
2023/07/05 16:13:01;;;;;;;0.28;0.28;;;20.20;99.90;24.10;101249.00;;;;5035319;28;20214;-65
2023/07/05 16:15:36;;;;;;;0.50;0.50;;;20.60;99.90;22.20;101162.00;;;;5034192;28;20229;-66
2023/07/05 16:18:06;;;;;;;1.00;0.60;;;19.80;99.90;22.00;101178.00;;;;5034421;28;20183;-66
2023/07/05 16:20:35;;;;;;;0.70;0.70;;;19.20;99.90;21.60;101158.00;;;;5035048;28;20194;-65
2023/07/05 16:23:03;;;;;;;0.40;0.40;;;18.60;99.90;21.70;101164.00;;;;5025001;28;20194;-65
2023/07/05 16:25:36;;;;;;;0.40;0.40;;;18.40;99.90;21.60;101158.00;;;;5033867;28;20182;-65
2023/07/05 16:28:11;;;;;;;0.40;0.40;;;18.20;99.90;21.80;101163.00;;;;5035216;28;20193;-65
2023/07/05 16:30:46;;;;;;;0.40;0.40;;;18.20;99.90;21.90;101164.00;;;;5034861;28;20176;-65
2023/07/05 16:33:22;;;;;;;0.40;0.40;;;18.20;99.90;21.70;101184.00;;;;5033722;28;20272;-65
2023/07/05 16:36:14;;;;;;;0.60;0.60;;;18.20;99.90;21.70;101190.00;;;;5034897;28;20571;-65
2023/07/05 16:38:48;;;;;;;0.77;0.77;;;18.20;99.90;21.40;101192.00;;;;5031567;28;20184;-65
2023/07/05 16:41:52;;;;;;;0.30;0.30;;;18.10;99.90;21.30;101190.00;;;;5018822;28;20324;-64
2023/07/05 16:44:36;;;;;;;0.50;0.50;;;18.10;99.90;21.50;101198.00;;;;5034506;28;20193;-64
2023/07/05 16:47:09;;;;;;;0.50;0.50;;;18.00;99.90;21.40;101183.00;;;;5016883;28;20434;-64
2023/07/05 16:49:41;;;;;;;0.30;0.30;;;18.00;99.90;21.80;101191.00;;;;5034628;28;20186;-64
2023/07/05 16:52:11;;;;;;;0.33;0.33;;;18.20;99.90;21.90;101188.00;;;;5033666;28;20209;-64
2023/07/05 16:54:41;;;;;;;0.30;0.30;;;18.40;99.90;21.90;101191.00;;;;5026061;28;20194;-64
2023/07/05 16:57:09;;;;;;;0.30;0.30;;;18.40;99.90;22.30;101201.00;;;;5034614;28;20269;-64
2023/07/05 16:59:38;;;;;;;0.37;0.37;;;18.60;99.90;21.80;101209.00;;;;5034938;28;20186;-64
2023/07/05 17:02:06;;;;;;;0.30;0.30;;;18.50;99.90;22.30;101210.00;;;;5033461;28;20192;-64
2023/07/05 17:04:36;;;;;;;0.40;0.40;;;18.60;99.90;22.30;101215.00;;;;5034750;28;20190;-64
2023/07/05 17:07:04;;;;;;;0.30;0.30;;;18.70;99.90;21.90;101212.00;;;;5034263;28;20185;-64
2023/07/05 17:09:36;;;;;;;0.50;0.50;;;18.60;99.90;22.30;101221.00;;;;5034656;28;20275;-64
2023/07/05 17:12:16;;;;;;;0.30;0.30;;;18.60;99.90;22.40;101239.00;;;;5034354;28;20205;-64
2023/07/05 17:14:48;;;;;;;0.30;0.30;;;18.70;99.90;21.90;101235.00;;;;5034445;28;20220;-64
2023/07/05 17:17:18;;;;;;;0.87;0.60;;;18.60;99.90;21.50;101231.00;;;;5034183;28;20178;-64
2023/07/05 17:19:47;;;;;;;0.30;0.30;;;18.30;99.90;21.20;101238.00;;;;5033969;28;20277;-64
2023/07/05 17:22:23;;;;;;;0.40;0.40;;;18.20;99.90;19.50;101219.00;;;;5033966;28;20197;-64
2023/07/05 17:24:56;;;;;;;1.17;1.13;;;17.60;99.90;18.70;101212.00;;;;5034051;28;20201;-64
2023/07/05 17:27:39;;;;;;;0.40;0.40;;;17.00;99.90;19.50;101188.00;;;;5034213;28;20303;-64
2023/07/05 17:30:06;;;;;;;0.20;0.20;;;16.80;99.90;20.20;101214.00;;;;5026782;28;20545;-64
2023/07/05 17:32:35;;;;;;;0.90;0.90;;;17.00;99.90;20.50;101219.00;;;;5033552;28;20219;-64
2023/07/05 17:35:06;;;;;;;0.40;0.40;;;17.20;99.90;20.60;101238.00;;;;5034052;28;20255;-64
2023/07/05 17:37:37;;;;;;;0.30;0.30;;;17.20;99.90;20.30;101220.00;;;;5033812;28;20193;-64
2023/07/05 17:40:10;;;;;;;0.30;0.30;;;17.10;99.90;20.50;101230.00;;;;5033734;28;20187;-64
2023/07/05 17:42:42;;;;;;;1.00;0.90;;;17.20;99.90;19.70;101224.00;;;;5015448;28;20675;-64
2023/07/05 17:45:17;;;;;;;0.60;0.60;;;16.90;99.90;19.80;101201.00;;;;5032920;28;20249;-64
2023/07/05 17:47:45;;;;;;;0.40;0.40;;;16.60;99.90;20.20;101224.00;;;;5022976;28;20190;-64
2023/07/05 17:50:13;;;;;;;1.63;0.57;;;16.70;99.90;19.80;101233.00;;;;5033774;28;20179;-64
2023/07/05 17:52:44;;;;;;;0.30;0.30;;;16.70;99.90;20.50;101226.00;;;;5033594;28;20203;-64
2023/07/05 17:55:13;;;;;;;0.30;0.30;;;16.80;99.90;20.30;101217.00;;;;5033924;28;20191;-64
2023/07/05 17:57:44;;;;;;;0.30;0.30;;;16.90;99.90;20.90;101221.00;;;;5032477;28;20229;-64
2023/07/05 18:00:12;;;;;;;0.50;0.50;;;17.00;99.90;21.00;101221.00;;;;5033297;28;20658;-64
2023/07/05 18:02:59;;;;;;;0.30;0.30;;;17.20;99.90;21.30;101224.00;;;;5032348;28;20638;-64
2023/07/05 18:05:26;;;;;;;0.40;0.40;;;17.30;99.90;21.30;101225.00;;;;5023332;28;20281;-64
2023/07/05 18:07:55;;;;;;;0.30;0.30;;;17.40;99.90;21.60;101199.00;;;;5033006;28;20196;-64
2023/07/05 18:10:44;;;;;;;0.30;0.30;;;17.60;99.90;21.70;101226.00;;;;5033607;28;20192;-64
2023/07/05 18:13:15;;;;;;;0.30;0.30;;;17.80;99.90;21.70;101200.00;;;;5031766;28;20203;-64
2023/07/05 18:16:00;;;;;;;0.30;0.30;;;18.00;99.90;21.40;101225.00;;;;5033001;28;20183;-63
2023/07/05 18:18:30;;;;;;;0.73;0.73;;;17.80;99.90;21.60;101213.00;;;;5032218;28;20631;-63
2023/07/05 18:21:06;;;;;;;2.00;1.70;;;17.90;99.90;21.20;101229.00;;;;5033222;28;20180;-64
2023/07/05 18:23:37;;;;;;;1.90;0.90;;;17.90;99.90;20.30;101217.00;;;;5033155;28;20191;-64
2023/07/05 18:26:09;;;;;;;2.77;2.30;;;17.50;99.90;19.80;101221.00;;;;5033702;28;20605;-64
2023/07/05 18:28:40;;;;;;;0.20;0.20;;;17.20;99.90;19.70;101188.00;;;;5031506;28;20188;-64
2023/07/05 18:31:08;;;;;;;1.30;1.20;;;17.10;99.90;19.60;101208.00;;;;5017422;28;20225;-63
2023/07/05 18:33:39;;;;;;;0.73;0.63;;;16.90;99.90;19.10;101198.00;;;;5030006;28;20221;-63
2023/07/05 18:36:05;;;;;;;0.40;0.40;;;16.80;99.90;19.40;101208.00;;;;5031729;28;20184;-63
2023/07/05 18:38:54;;;;;;;0.20;0.20;;;16.80;99.90;19.40;101209.00;;;;5032758;28;20220;-63
2023/07/05 18:41:21;;;;;;;2.20;1.40;;;16.80;99.90;19.60;101191.00;;;;5029956;28;20206;-63
2023/07/05 18:46:50;;;;;;;0.30;0.30;;;17.00;99.90;18.90;101208.00;;;;5032798;28;20184;-63
2023/07/05 18:49:22;;;;;;;1.30;1.20;;;16.70;99.90;19.60;101220.00;;;;5031794;28;20592;-64